createdAt,value
2023-03-27T00:01:50.621Z,94756.28
2023-03-27T00:04:22.408Z,94761.78
2023-03-27T00:06:49.364Z,94753.19
2023-03-27T00:09:17.232Z,94753.59
2023-03-27T00:11:46.537Z,94753.28
2023-03-27T00:14:16.394Z,94758.53
2023-03-27T00:16:46.518Z,94770.75
2023-03-27T00:19:16.193Z,94757.97
2023-03-27T00:21:48.896Z,94762.41
2023-03-27T00:24:16.123Z,94762.41
2023-03-27T00:26:45.913Z,94770.91
2023-03-27T00:29:13.586Z,94753.19
2023-03-27T00:31:42.813Z,94752.06
2023-03-27T00:34:10.658Z,94758.13
2023-03-27T00:36:43.874Z,94758.63
2023-03-27T00:39:11.506Z,94751.41
2023-03-27T00:41:40.911Z,94753.59
2023-03-27T00:44:27.139Z,94757.97
2023-03-27T00:46:58.144Z,94749.53
2023-03-27T00:49:36.370Z,94763.00
2023-03-27T00:52:07.219Z,94765.09
2023-03-27T00:54:39.058Z,94761.03
2023-03-27T00:57:09.496Z,94759.16
2023-03-27T00:59:40.932Z,94766.63
2023-03-27T01:02:09.230Z,94766.16
2023-03-27T01:04:40.446Z,94757.25
2023-03-27T01:07:11.378Z,94766.16
2023-03-27T01:09:39.419Z,94776.78
2023-03-27T01:12:38.591Z,94769.81
2023-03-27T01:15:33.183Z,94768.91
2023-03-27T01:18:16.369Z,94757.97
2023-03-27T01:20:59.943Z,94761.16
2023-03-27T01:23:59.822Z,94755.88
2023-03-27T01:27:07.731Z,94774.81
2023-03-27T01:30:02.943Z,94766.63
2023-03-27T01:32:57.347Z,94764.13
2023-03-27T01:36:04.377Z,94762.00
2023-03-27T01:38:37.257Z,94761.69
2023-03-27T01:41:13.079Z,94750.47
2023-03-27T01:44:17.725Z,94757.31
2023-03-27T01:47:34.323Z,94765.16
2023-03-27T01:50:13.202Z,94751.84
2023-03-27T01:52:44.394Z,94767.66
2023-03-27T01:55:19.456Z,94774.22
2023-03-27T01:58:03.367Z,94757.75
2023-03-27T02:00:51.706Z,94785.84
2023-03-27T02:03:31.875Z,94783.19
2023-03-27T02:06:14.466Z,94784.38
2023-03-27T02:08:53.508Z,94762.56
2023-03-27T02:11:29.065Z,94783.03
2023-03-27T02:14:09.929Z,94783.50
2023-03-27T02:16:48.854Z,94786.97
2023-03-27T02:19:35.314Z,94783.09
2023-03-27T02:22:02.539Z,94777.19
2023-03-27T02:24:38.923Z,94773.63
2023-03-27T02:27:34.601Z,94796.81
2023-03-27T02:30:09.885Z,94793.88
2023-03-27T02:33:06.588Z,94801.75
2023-03-27T02:35:39.606Z,94801.00
2023-03-27T02:38:09.838Z,94800.84
2023-03-27T02:41:10.044Z,94807.06
2023-03-27T02:44:03.502Z,94805.69
2023-03-27T02:46:54.895Z,94808.59
2023-03-27T02:49:33.670Z,94805.50
2023-03-27T02:52:06.735Z,94815.31
2023-03-27T02:54:41.087Z,94800.69
2023-03-27T02:57:16.685Z,94820.88
2023-03-27T03:00:05.646Z,94813.63
2023-03-27T03:02:38.224Z,94817.50
2023-03-27T03:05:14.688Z,94826.09
2023-03-27T03:07:41.828Z,94818.78
2023-03-27T03:10:12.041Z,94825.91
2023-03-27T03:12:46.774Z,94832.22
2023-03-27T03:15:13.639Z,94827.81
2023-03-27T03:17:40.693Z,94834.84
2023-03-27T03:20:09.965Z,94832.31
2023-03-27T03:22:40.106Z,94845.91
2023-03-27T03:25:07.977Z,94835.94
2023-03-27T03:27:39.209Z,94852.13
2023-03-27T03:30:16.600Z,94839.16
2023-03-27T03:33:07.483Z,94846.84
2023-03-27T03:35:35.105Z,94839.81
2023-03-27T03:38:08.856Z,94848.56
2023-03-27T03:40:44.165Z,94856.78
2023-03-27T03:43:13.493Z,94858.16
2023-03-27T03:45:42.865Z,94861.09
2023-03-27T03:48:12.048Z,94867.38
2023-03-27T03:50:41.311Z,94863.91
2023-03-27T03:53:08.245Z,94871.66
2023-03-27T03:55:35.176Z,94859.19
2023-03-27T03:58:04.377Z,94885.66
2023-03-27T04:00:38.394Z,94886.41
2023-03-27T04:03:09.968Z,94898.44
2023-03-27T04:05:39.180Z,94899.00
2023-03-27T04:08:13.170Z,94903.22
2023-03-27T04:11:06.190Z,94899.63
2023-03-27T04:13:58.035Z,94891.59
2023-03-27T04:16:31.110Z,94898.06
2023-03-27T04:19:03.621Z,94906.03
2023-03-27T04:21:36.714Z,94908.88
2023-03-27T04:24:08.569Z,94908.22
2023-03-27T04:26:48.170Z,94886.94
2023-03-27T04:29:22.576Z,94926.75
2023-03-27T04:31:59.398Z,94918.91
2023-03-27T04:34:41.806Z,94912.06
2023-03-27T04:37:29.489Z,94960.75
2023-03-27T04:40:05.331Z,94931.63
2023-03-27T04:42:32.299Z,94938.56
2023-03-27T04:44:59.221Z,94945.97
2023-03-27T04:47:32.077Z,94956.00
2023-03-27T04:50:01.154Z,94952.06
2023-03-27T04:52:30.214Z,94962.75
2023-03-27T04:54:59.073Z,94981.22
2023-03-27T04:57:31.049Z,94990.81
2023-03-27T05:00:02.166Z,95000.38
2023-03-27T05:02:48.095Z,94992.88
2023-03-27T05:05:20.988Z,95009.34
2023-03-27T05:07:49.835Z,95031.06
2023-03-27T05:10:21.889Z,95024.72
2023-03-27T05:12:51.664Z,95042.66
2023-03-27T05:15:22.036Z,95043.28
2023-03-27T05:17:55.213Z,95062.47
2023-03-27T05:20:25.462Z,95062.78
2023-03-27T05:22:56.596Z,95082.16
2023-03-27T05:25:35.940Z,95090.47
2023-03-27T05:28:09.567Z,95087.88
2023-03-27T05:30:39.260Z,95095.53
2023-03-27T05:33:17.800Z,95123.41
2023-03-27T05:35:48.621Z,95134.63
2023-03-27T05:38:16.945Z,95126.91
2023-03-27T05:41:13.042Z,95137.78
2023-03-27T05:43:50.191Z,95140.50
2023-03-27T05:46:21.991Z,95142.28
2023-03-27T05:48:59.395Z,95163.56
2023-03-27T05:51:29.638Z,95171.53
2023-03-27T05:53:56.974Z,95184.41
2023-03-27T05:56:33.462Z,95180.78
2023-03-27T05:59:05.254Z,95180.66
2023-03-27T06:01:37.622Z,95207.38
2023-03-27T06:04:11.228Z,95217.97
2023-03-27T06:07:09.454Z,95229.47
2023-03-27T06:09:36.806Z,95243.41
2023-03-27T06:12:26.848Z,95258.81
2023-03-27T06:15:07.672Z,95261.53
2023-03-27T06:17:43.341Z,95272.13
2023-03-27T06:20:15.797Z,95291.81
2023-03-27T06:22:52.891Z,95295.56
2023-03-27T06:25:32.285Z,95308.69
2023-03-27T06:28:08.669Z,95306.56
2023-03-27T06:30:44.710Z,95314.09
2023-03-27T06:33:33.116Z,95327.09
2023-03-27T06:36:05.605Z,95337.31
2023-03-27T06:38:42.668Z,95342.84
2023-03-27T06:41:12.890Z,95348.19
2023-03-27T06:44:09.369Z,95370.19
2023-03-27T06:46:59.873Z,95377.09
2023-03-27T06:49:31.889Z,95385.94
2023-03-27T06:52:07.060Z,95399.69
2023-03-27T06:54:40.911Z,95397.63
2023-03-27T06:57:15.838Z,95394.91
2023-03-27T06:59:54.715Z,95401.81
2023-03-27T07:02:28.855Z,95421.50
2023-03-27T07:05:15.838Z,95426.41
2023-03-27T07:07:49.324Z,95424.94
2023-03-27T07:10:22.702Z,95438.22
2023-03-27T07:12:54.550Z,95435.16
2023-03-27T07:15:25.123Z,95455.81
2023-03-27T07:18:04.518Z,95451.41
2023-03-27T07:20:37.279Z,95459.88
2023-03-27T07:23:13.068Z,95467.59
2023-03-27T07:26:02.144Z,95475.25
2023-03-27T07:28:52.923Z,95483.72
2023-03-27T07:31:34.999Z,95495.03
2023-03-27T07:34:10.679Z,95506.22
2023-03-27T07:37:02.023Z,95498.34
2023-03-27T07:39:35.584Z,95507.56
2023-03-27T07:42:08.791Z,95505.81
2023-03-27T07:45:06.615Z,95531.53
2023-03-27T07:47:33.651Z,95526.84
2023-03-27T07:50:06.353Z,95535.56
2023-03-27T07:52:35.959Z,95542.19
2023-03-27T07:55:08.695Z,95556.09
2023-03-27T07:57:59.916Z,95564.94
2023-03-27T08:00:35.657Z,95578.22
2023-03-27T08:03:15.368Z,95571.44
2023-03-27T08:05:47.458Z,95578.06
2023-03-27T08:08:16.311Z,95580.78
2023-03-27T08:11:00.762Z,95596.50
2023-03-27T08:13:33.324Z,95596.13
2023-03-27T08:16:11.515Z,95618.25
2023-03-27T08:18:40.953Z,95617.13
2023-03-27T08:21:13.358Z,95613.16
2023-03-27T08:23:44.343Z,95633.44
2023-03-27T08:26:29.853Z,95624.72
2023-03-27T08:28:59.420Z,95652.75
2023-03-27T08:31:31.889Z,95658.66
2023-03-27T08:34:05.687Z,95661.59
2023-03-27T08:36:46.706Z,95670.06
2023-03-27T08:39:17.066Z,95677.47
2023-03-27T08:42:13.932Z,95686.31
2023-03-27T08:44:45.311Z,95678.94
2023-03-27T08:47:42.597Z,95693.69
2023-03-27T08:50:32.638Z,95709.66
2023-03-27T08:53:17.440Z,95716.44
2023-03-27T08:55:44.783Z,95719.00
2023-03-27T08:58:22.183Z,95726.00
2023-03-27T09:01:19.573Z,95736.53
2023-03-27T09:04:05.221Z,95733.19
2023-03-27T09:06:50.705Z,95745.25
2023-03-27T09:09:24.362Z,95751.50
2023-03-27T09:12:24.578Z,95766.38
2023-03-27T09:15:15.633Z,95760.94
2023-03-27T09:18:39.633Z,95773.69
2023-03-27T09:21:36.730Z,95772.22
2023-03-27T09:24:25.034Z,95781.78
2023-03-27T09:27:27.168Z,95792.47
2023-03-27T09:30:11.200Z,95800.81
2023-03-27T09:32:54.237Z,95799.81
2023-03-27T09:35:25.887Z,95792.28
2023-03-27T09:38:04.047Z,95803.34
2023-03-27T09:40:50.022Z,95807.06
2023-03-27T09:43:24.419Z,95813.31
2023-03-27T09:45:59.047Z,95814.53
2023-03-27T09:48:40.270Z,95806.00
2023-03-27T09:51:36.615Z,95816.22
2023-03-27T09:54:14.894Z,95818.41
2023-03-27T09:56:50.473Z,95818.56
2023-03-27T09:59:28.669Z,95812.16
2023-03-27T10:02:24.086Z,95827.78
2023-03-27T10:05:23.313Z,95827.44
2023-03-27T10:07:59.651Z,95819.97
2023-03-27T10:10:55.563Z,95829.56
2023-03-27T10:13:48.098Z,95852.59
2023-03-27T10:16:22.877Z,95846.59
2023-03-27T10:19:04.060Z,95849.81
2023-03-27T10:21:42.842Z,95847.97
2023-03-27T10:24:27.529Z,95861.78
2023-03-27T10:27:17.329Z,95851.56
2023-03-27T10:30:34.333Z,95868.81
2023-03-27T10:33:45.822Z,95875.22
2023-03-27T10:36:39.668Z,95881.00
2023-03-27T10:39:16.596Z,95890.81
2023-03-27T10:41:55.810Z,95887.03
2023-03-27T10:44:30.929Z,95885.56
2023-03-27T10:47:03.209Z,95887.78
2023-03-27T10:49:58.688Z,95897.06
2023-03-27T10:52:33.925Z,95910.84
2023-03-27T10:55:33.503Z,95912.44
2023-03-27T10:58:14.226Z,95909.28
2023-03-27T11:00:49.075Z,95912.09
2023-03-27T11:03:45.833Z,95903.94
2023-03-27T11:06:20.977Z,95916.66
2023-03-27T11:09:05.846Z,95926.75
2023-03-27T11:11:41.248Z,95920.84
2023-03-27T11:14:46.051Z,95934.53
2023-03-27T11:17:23.283Z,95942.63
2023-03-27T11:20:37.199Z,95943.41
2023-03-27T11:23:43.595Z,95940.88
2023-03-27T11:26:39.732Z,95938.03
2023-03-27T11:29:23.188Z,95947.03
2023-03-27T11:32:04.347Z,95946.47
2023-03-27T11:34:42.725Z,95953.72
2023-03-27T11:38:02.868Z,95954.47
2023-03-27T11:40:43.396Z,95931.53
2023-03-27T11:43:17.665Z,95956.84
2023-03-27T11:46:22.920Z,95951.31
2023-03-27T11:49:07.458Z,95948.59
2023-03-27T11:51:39.745Z,95947.63
2023-03-27T11:54:40.839Z,95944.63
2023-03-27T11:57:26.029Z,95965.47
2023-03-27T12:00:18.449Z,95959.69
2023-03-27T12:03:07.047Z,95977.94
2023-03-27T12:06:02.252Z,95988.78
2023-03-27T12:08:56.386Z,95980.63
2023-03-27T12:11:27.206Z,95993.97
2023-03-27T12:14:28.268Z,95975.34
2023-03-27T12:17:20.630Z,95976.06
2023-03-27T12:20:09.357Z,95969.94
2023-03-27T12:23:19.466Z,95967.81
2023-03-27T12:26:06.712Z,95964.88
2023-03-27T12:29:40.829Z,95986.56
2023-03-27T12:32:32.042Z,95984.47
2023-03-27T12:35:14.434Z,95974.47
2023-03-27T12:37:59.986Z,95984.19
2023-03-27T12:40:38.963Z,95994.06
2023-03-27T12:43:33.894Z,96002.97
2023-03-27T12:46:23.602Z,96001.84
2023-03-27T12:48:56.743Z,95998.63
2023-03-27T12:51:39.713Z,95999.16
2023-03-27T12:54:16.670Z,96001.09
2023-03-27T12:56:45.729Z,96002.47
2023-03-27T12:59:28.327Z,95997.66
2023-03-27T13:02:06.761Z,96004.19
2023-03-27T13:04:47.950Z,96009.72
2023-03-27T13:07:29.046Z,96020.81
2023-03-27T13:10:30.146Z,96030.44
2023-03-27T13:13:23.652Z,96036.31
2023-03-27T13:16:19.584Z,96030.38
2023-03-27T13:18:59.125Z,96031.47
2023-03-27T13:21:29.713Z,96023.31
2023-03-27T13:24:34.184Z,96030.97
2023-03-27T13:27:15.458Z,96036.50
2023-03-27T13:29:50.170Z,96026.16
2023-03-27T13:32:38.195Z,96026.41
2023-03-27T13:35:38.437Z,96031.31
2023-03-27T13:38:05.340Z,96023.31
2023-03-27T13:40:54.886Z,96021.16
2023-03-27T13:43:31.046Z,96032.63
2023-03-27T13:46:08.291Z,96042.13
2023-03-27T13:49:15.870Z,96035.47
2023-03-27T13:52:33.500Z,96044.72
2023-03-27T13:55:17.780Z,96051.88
2023-03-27T13:58:32.824Z,96047.34
2023-03-27T14:01:26.192Z,96080.72
2023-03-27T14:04:11.353Z,96070.00
2023-03-27T14:07:05.438Z,96063.34
2023-03-27T14:09:50.441Z,96074.16
2023-03-27T14:12:27.922Z,96071.53
2023-03-27T14:15:21.573Z,96078.69
2023-03-27T14:18:25.875Z,96090.38
2023-03-27T14:21:03.595Z,96100.69
2023-03-27T14:23:52.062Z,96115.94
2023-03-27T14:26:45.501Z,96110.75
2023-03-27T14:29:21.386Z,96105.19
2023-03-27T14:31:53.778Z,96126.25
2023-03-27T14:34:35.240Z,96129.53
2023-03-27T14:37:32.925Z,96135.50
2023-03-27T14:40:23.182Z,96140.66
2023-03-27T14:42:54.539Z,96130.56
2023-03-27T14:45:30.339Z,96136.34
2023-03-27T14:48:06.445Z,96139.06
2023-03-27T14:50:47.892Z,96137.56
2023-03-27T14:53:26.298Z,96136.84
2023-03-27T14:56:31.989Z,96140.81
2023-03-27T14:59:14.059Z,96129.00
2023-03-27T15:01:58.145Z,96143.44
2023-03-27T15:04:28.360Z,96136.56
2023-03-27T15:07:19.150Z,96135.06
2023-03-27T15:10:07.008Z,96148.00
2023-03-27T15:13:12.333Z,96145.31
2023-03-27T15:15:53.648Z,96133.00
2023-03-27T15:18:53.171Z,96131.91
2023-03-27T15:21:34.893Z,96139.66
2023-03-27T15:24:13.770Z,96136.22
2023-03-27T15:26:45.348Z,96149.75
2023-03-27T15:29:24.095Z,96157.25
2023-03-27T15:31:59.967Z,96156.13
2023-03-27T15:34:47.785Z,96158.00
2023-03-27T15:37:23.466Z,96159.59
2023-03-27T15:40:10.424Z,96163.47
2023-03-27T15:42:52.788Z,96155.78
2023-03-27T15:45:38.438Z,96169.25
2023-03-27T15:48:32.749Z,96172.09
2023-03-27T15:51:06.510Z,96177.88
2023-03-27T15:53:43.526Z,96181.44
2023-03-27T15:56:13.077Z,96188.59
2023-03-27T15:58:59.964Z,96192.66
2023-03-27T16:01:32.570Z,96189.22
2023-03-27T16:04:12.544Z,96181.44
2023-03-27T16:06:46.047Z,96194.63
2023-03-27T16:09:23.516Z,96196.69
2023-03-27T16:11:56.126Z,96205.94
2023-03-27T16:14:28.201Z,96204.59
2023-03-27T16:17:14.926Z,96210.13
2023-03-27T16:19:56.195Z,96214.31
2023-03-27T16:22:35.692Z,96216.13
2023-03-27T16:25:04.531Z,96218.34
2023-03-27T16:27:43.687Z,96215.53
2023-03-27T16:30:23.560Z,96216.13
2023-03-27T16:32:55.989Z,96230.28
2023-03-27T16:35:25.257Z,96230.16
2023-03-27T16:37:56.817Z,96235.09
2023-03-27T16:40:26.352Z,96235.53
2023-03-27T16:42:53.173Z,96239.31
2023-03-27T16:45:25.387Z,96251.19
2023-03-27T16:47:53.516Z,96274.31
2023-03-27T16:50:23.479Z,96267.34
2023-03-27T16:52:55.246Z,96270.72
2023-03-27T16:55:25.407Z,96272.53
2023-03-27T16:57:55.879Z,96270.88
2023-03-27T17:00:23.104Z,96275.50
2023-03-27T17:02:52.209Z,96282.50
2023-03-27T17:05:22.533Z,96281.63
2023-03-27T17:07:51.884Z,96284.75
2023-03-27T17:10:21.326Z,96288.63
2023-03-27T17:12:53.720Z,96285.41
2023-03-27T17:15:25.960Z,96280.50
2023-03-27T17:17:55.197Z,96290.94
2023-03-27T17:20:27.383Z,96292.56
2023-03-27T17:22:56.930Z,96307.31
2023-03-27T17:25:23.778Z,96306.41
2023-03-27T17:27:52.871Z,96305.66
2023-03-27T17:30:36.622Z,96308.94
2023-03-27T17:33:11.199Z,96322.19
2023-03-27T17:35:41.531Z,96321.16
2023-03-27T17:38:13.172Z,96318.75
2023-03-27T17:40:41.181Z,96332.75
2023-03-27T17:43:08.085Z,96323.69
2023-03-27T17:45:41.470Z,96338.53
2023-03-27T17:48:11.667Z,96344.78
2023-03-27T17:50:41.975Z,96347.63
2023-03-27T17:53:14.374Z,96339.59
2023-03-27T17:55:44.165Z,96349.97
2023-03-27T17:58:22.078Z,96345.97
2023-03-27T18:00:50.065Z,96350.25
2023-03-27T18:03:24.263Z,96335.19
2023-03-27T18:05:51.231Z,96354.69
2023-03-27T18:08:19.915Z,96353.19
2023-03-27T18:10:55.612Z,96352.28
2023-03-27T18:13:22.464Z,96348.59
2023-03-27T18:15:58.526Z,96346.19
2023-03-27T18:18:25.971Z,96353.44
2023-03-27T18:20:56.646Z,96343.16
2023-03-27T18:23:23.605Z,96358.34
2023-03-27T18:25:52.719Z,96351.63
2023-03-27T18:28:22.514Z,96364.16
2023-03-27T18:31:02.220Z,96369.69
2023-03-27T18:33:34.733Z,96368.78
2023-03-27T18:36:01.909Z,96373.84
2023-03-27T18:38:30.131Z,96390.00
2023-03-27T18:41:01.644Z,96394.88
2023-03-27T18:43:33.693Z,96361.56
2023-03-27T18:46:04.300Z,96400.09
2023-03-27T18:48:31.656Z,96386.53
2023-03-27T18:51:05.580Z,96400.69
2023-03-27T18:53:33.132Z,96370.94
2023-03-27T18:56:05.175Z,96387.16
2023-03-27T18:58:36.892Z,96387.00
2023-03-27T19:01:11.053Z,96397.09
2023-03-27T19:03:43.064Z,96396.16
2023-03-27T19:06:12.024Z,96405.00
2023-03-27T19:08:43.376Z,96406.50
2023-03-27T19:11:12.614Z,96389.66
2023-03-27T19:13:58.419Z,96407.34
2023-03-27T19:16:43.846Z,96418.81
2023-03-27T19:19:16.533Z,96398.56
2023-03-27T19:21:52.743Z,96405.72
2023-03-27T19:24:27.341Z,96414.50
2023-03-27T19:26:54.433Z,96402.44
2023-03-27T19:29:23.574Z,96403.47
2023-03-27T19:31:54.603Z,96393.94
2023-03-27T19:34:32.673Z,96411.50
2023-03-27T19:37:09.314Z,96423.81
2023-03-27T19:39:36.320Z,96420.53
2023-03-27T19:42:05.824Z,96424.13
2023-03-27T19:44:38.329Z,96416.22
2023-03-27T19:47:07.746Z,96425.16
2023-03-27T19:49:37.970Z,96412.13
2023-03-27T19:52:18.834Z,96430.09
2023-03-27T19:54:46.680Z,96420.06
2023-03-27T19:57:13.625Z,96433.50
2023-03-27T19:59:45.514Z,96421.09
2023-03-27T20:02:13.499Z,96427.81
2023-03-27T20:04:40.443Z,96426.66
2023-03-27T20:07:07.856Z,96422.75
2023-03-27T20:09:37.403Z,96419.03
2023-03-27T20:12:06.083Z,96427.97
2023-03-27T20:14:33.036Z,96431.69
2023-03-27T20:16:59.959Z,96436.69
2023-03-27T20:19:30.775Z,96436.53
2023-03-27T20:22:07.869Z,96427.75
2023-03-27T20:24:34.738Z,96418.97
2023-03-27T20:27:02.308Z,96430.81
2023-03-27T20:29:29.231Z,96425.03
2023-03-27T20:32:00.850Z,96430.81
2023-03-27T20:34:30.173Z,96409.06
2023-03-27T20:36:59.775Z,96406.56
2023-03-27T20:39:47.422Z,96434.25
2023-03-27T20:42:18.424Z,96431.75
2023-03-27T20:44:55.079Z,96425.47
2023-03-27T20:47:26.508Z,96423.16
2023-03-27T20:49:59.053Z,96415.59
2023-03-27T20:52:30.792Z,96408.78
2023-03-27T20:54:57.753Z,96423.50
2023-03-27T20:57:27.101Z,96412.91
2023-03-27T20:59:56.685Z,96438.91
2023-03-27T21:02:26.734Z,96421.28
2023-03-27T21:04:53.701Z,96413.97
2023-03-27T21:07:25.528Z,96440.16
2023-03-27T21:09:54.948Z,96414.81
2023-03-27T21:12:21.820Z,96409.09
2023-03-27T21:14:48.699Z,96439.44
2023-03-27T21:17:18.221Z,96438.34
2023-03-27T21:19:45.117Z,96425.34
2023-03-27T21:22:14.299Z,96440.91
2023-03-27T21:24:45.582Z,96437.59
2023-03-27T21:27:12.855Z,96433.72
2023-03-27T21:29:39.699Z,96436.84
2023-03-27T21:32:06.947Z,96448.69
2023-03-27T21:34:36.414Z,96446.38
2023-03-27T21:37:05.568Z,96429.31
2023-03-27T21:39:37.330Z,96452.13
2023-03-27T21:42:09.574Z,96448.69
2023-03-27T21:44:38.551Z,96439.34
2023-03-27T21:47:10.416Z,96441.69
2023-03-27T21:49:39.857Z,96465.69
2023-03-27T21:52:09.497Z,96464.53
2023-03-27T21:54:38.822Z,96466.69
2023-03-27T21:57:05.958Z,96449.22
2023-03-27T21:59:33.061Z,96466.53
2023-03-27T22:02:00.123Z,96465.44
2023-03-27T22:04:31.895Z,96463.47
2023-03-27T22:07:01.179Z,96476.81
2023-03-27T22:09:33.142Z,96484.44
2023-03-27T22:12:03.000Z,96474.91
2023-03-27T22:14:30.103Z,96471.16
2023-03-27T22:16:59.762Z,96480.88
2023-03-27T22:19:26.788Z,96495.13
2023-03-27T22:21:53.888Z,96479.06
2023-03-27T22:24:25.323Z,96494.22
2023-03-27T22:26:54.700Z,96499.53
2023-03-27T22:29:21.785Z,96498.38
2023-03-27T22:31:48.893Z,96488.66
2023-03-27T22:34:16.032Z,96495.06
2023-03-27T22:36:47.282Z,96505.56
2023-03-27T22:39:16.757Z,96500.69
2023-03-27T22:41:48.534Z,96508.75
2023-03-27T22:44:18.340Z,96508.38
2023-03-27T22:46:47.589Z,96512.97
2023-03-27T22:49:19.335Z,96479.53
2023-03-27T22:51:46.213Z,96519.16
2023-03-27T22:54:15.812Z,96530.78
2023-03-27T22:56:42.769Z,96529.63
2023-03-27T22:59:12.815Z,96523.63
2023-03-27T23:01:40.288Z,96531.28
2023-03-27T23:04:09.780Z,96543.47
2023-03-27T23:06:36.743Z,96533.25
2023-03-27T23:09:06.539Z,96535.69
2023-03-27T23:11:35.987Z,96533.69
2023-03-27T23:14:02.880Z,96532.47
2023-03-27T23:16:34.624Z,96544.97
2023-03-27T23:19:04.145Z,96544.06
2023-03-27T23:21:33.672Z,96533.69
2023-03-27T23:24:04.976Z,96537.56
2023-03-27T23:26:36.892Z,96527.63
2023-03-27T23:29:06.186Z,96557.41
2023-03-27T23:31:35.889Z,96550.50
2023-03-27T23:34:05.278Z,96540.81
2023-03-27T23:36:34.657Z,96562.38
2023-03-27T23:39:03.758Z,96535.06
2023-03-27T23:41:30.693Z,96567.19
2023-03-27T23:44:00.586Z,96572.25
2023-03-27T23:46:29.702Z,96559.72
2023-03-27T23:48:58.662Z,96571.50
2023-03-27T23:51:32.936Z,96559.13
2023-03-27T23:54:05.033Z,96557.63
2023-03-27T23:56:34.226Z,96574.91
2023-03-27T23:59:03.235Z,96565.59
